createdAt,value
2023-01-22T00:01:20.199Z,9.18
2023-01-22T00:03:49.775Z,9.45
2023-01-22T00:06:18.081Z,8.63
2023-01-22T00:08:46.904Z,9.60
2023-01-22T00:11:16.330Z,8.20
2023-01-22T00:13:45.029Z,8.55
2023-01-22T00:16:15.499Z,7.35
2023-01-22T00:18:44.183Z,8.13
2023-01-22T00:21:13.917Z,8.57
2023-01-22T00:23:41.829Z,7.85
2023-01-22T00:26:16.402Z,9.02
2023-01-22T00:28:46.058Z,7.80
2023-01-22T00:31:16.504Z,9.82
2023-01-22T00:33:45.662Z,6.95
2023-01-22T00:36:20.154Z,6.95
2023-01-22T00:38:50.578Z,5.40
2023-01-22T00:41:19.931Z,5.20
2023-01-22T00:43:48.138Z,4.93
2023-01-22T00:46:17.933Z,5.32
2023-01-22T00:48:45.836Z,5.80
2023-01-22T00:51:15.860Z,6.78
2023-01-22T00:53:46.638Z,7.07
2023-01-22T00:56:15.186Z,8.05
2023-01-22T00:58:43.199Z,9.57
2023-01-22T01:01:14.537Z,8.68
2023-01-22T01:03:42.748Z,8.32
2023-01-22T01:06:22.135Z,9.07
2023-01-22T01:08:50.489Z,9.30
2023-01-22T01:11:30.267Z,8.98
2023-01-22T01:13:58.167Z,9.55
2023-01-22T01:16:30.033Z,8.25
2023-01-22T01:19:05.889Z,9.38
2023-01-22T01:21:35.015Z,8.45
2023-01-22T01:24:02.973Z,7.90
2023-01-22T01:26:31.416Z,8.02
2023-01-22T01:28:59.282Z,7.82
2023-01-22T01:31:27.674Z,8.18
2023-01-22T01:33:58.599Z,8.18
2023-01-22T01:36:47.100Z,8.38
2023-01-22T01:39:14.675Z,8.80
2023-01-22T01:41:44.457Z,7.13
2023-01-22T01:44:21.023Z,7.35
2023-01-22T01:46:54.515Z,7.70
2023-01-22T01:49:35.348Z,8.32
2023-01-22T01:52:09.571Z,7.45
2023-01-22T01:54:43.159Z,8.20
2023-01-22T01:57:22.406Z,7.70
2023-01-22T01:59:52.054Z,7.78
2023-01-22T02:02:20.925Z,8.05
2023-01-22T02:04:51.495Z,8.25
2023-01-22T02:07:20.845Z,8.23
2023-01-22T02:09:48.790Z,7.07
2023-01-22T02:12:16.999Z,8.30
2023-01-22T02:14:46.838Z,8.73
2023-01-22T02:17:19.209Z,7.93
2023-01-22T02:19:47.826Z,9.55
2023-01-22T02:22:21.411Z,8.07
2023-01-22T02:24:50.375Z,9.10
2023-01-22T02:27:20.793Z,8.63
2023-01-22T02:29:50.118Z,8.23
2023-01-22T02:32:18.821Z,9.25
2023-01-22T02:34:46.720Z,8.20
2023-01-22T02:37:16.027Z,8.38
2023-01-22T02:39:43.883Z,7.95
2023-01-22T02:42:12.457Z,7.70
2023-01-22T02:44:42.001Z,7.95
2023-01-22T02:47:11.278Z,8.13
2023-01-22T02:49:39.163Z,8.75
2023-01-22T02:52:07.951Z,7.88
2023-01-22T02:54:36.616Z,9.00
2023-01-22T02:57:04.857Z,7.72
2023-01-22T02:59:32.767Z,7.43
2023-01-22T03:02:02.332Z,8.10
2023-01-22T03:04:30.208Z,8.18
2023-01-22T03:06:58.386Z,8.20
2023-01-22T03:09:30.082Z,8.82
2023-01-22T03:11:59.251Z,7.75
2023-01-22T03:14:49.722Z,8.05
2023-01-22T03:17:38.167Z,7.97
2023-01-22T03:20:25.218Z,7.78
2023-01-22T03:22:54.403Z,6.80
2023-01-22T03:25:22.257Z,8.02
2023-01-22T03:28:16.656Z,7.28
2023-01-22T03:30:49.617Z,7.20
2023-01-22T03:33:19.157Z,8.10
2023-01-22T03:35:50.176Z,7.20
2023-01-22T03:38:22.613Z,7.20
2023-01-22T03:40:50.539Z,5.97
2023-01-22T03:43:20.377Z,7.22
2023-01-22T03:45:48.691Z,6.07
2023-01-22T03:48:20.979Z,6.18
2023-01-22T03:50:49.378Z,7.25
2023-01-22T03:53:18.804Z,6.15
2023-01-22T03:55:46.716Z,8.30
2023-01-22T03:58:14.898Z,6.90
2023-01-22T04:00:42.811Z,8.32
2023-01-22T04:03:12.349Z,7.80
2023-01-22T04:05:41.571Z,7.30
2023-01-22T04:08:09.867Z,7.60
2023-01-22T04:10:42.887Z,7.75
2023-01-22T04:13:11.163Z,7.97
2023-01-22T04:15:44.917Z,7.45
2023-01-22T04:18:39.247Z,9.13
2023-01-22T04:21:22.050Z,8.20
2023-01-22T04:23:59.160Z,7.80
2023-01-22T04:26:27.115Z,7.43
2023-01-22T04:28:57.427Z,7.85
2023-01-22T04:31:26.397Z,7.07
2023-01-22T04:34:16.044Z,7.88
2023-01-22T04:36:54.217Z,7.60
2023-01-22T04:39:24.544Z,7.65
2023-01-22T04:41:52.467Z,7.07
2023-01-22T04:44:21.099Z,7.95
2023-01-22T04:46:49.125Z,8.23
2023-01-22T04:49:17.331Z,7.72
2023-01-22T04:51:46.248Z,7.20
2023-01-22T04:54:14.457Z,8.43
2023-01-22T04:56:42.328Z,8.65
2023-01-22T04:59:11.407Z,7.75
2023-01-22T05:01:42.697Z,7.20
2023-01-22T05:04:11.333Z,6.60
2023-01-22T05:06:39.237Z,7.30
2023-01-22T05:09:07.479Z,6.47
2023-01-22T05:11:50.404Z,7.20
2023-01-22T05:14:19.047Z,5.70
2023-01-22T05:16:49.600Z,6.05
2023-01-22T05:19:17.967Z,6.63
2023-01-22T05:21:46.220Z,6.28
2023-01-22T05:24:18.820Z,6.38
2023-01-22T05:26:46.818Z,5.68
2023-01-22T05:29:20.143Z,6.20
2023-01-22T05:32:14.087Z,6.15
2023-01-22T05:34:47.098Z,6.43
2023-01-22T05:37:15.057Z,7.32
2023-01-22T05:39:43.405Z,6.03
2023-01-22T05:42:16.300Z,6.00
2023-01-22T05:44:48.847Z,5.80
2023-01-22T05:47:20.122Z,6.10
2023-01-22T05:50:10.198Z,6.55
2023-01-22T05:52:38.048Z,7.18
2023-01-22T05:55:06.738Z,6.35
2023-01-22T05:57:41.898Z,6.28
2023-01-22T06:00:12.461Z,6.15
2023-01-22T06:02:44.583Z,6.20
2023-01-22T06:05:15.217Z,5.93
2023-01-22T06:07:45.688Z,5.80
2023-01-22T06:10:13.957Z,5.20
2023-01-22T06:12:47.580Z,5.70
2023-01-22T06:15:16.063Z,4.97
2023-01-22T06:17:49.243Z,6.53
2023-01-22T06:20:17.762Z,7.55
2023-01-22T06:22:45.932Z,5.95
2023-01-22T06:25:14.233Z,5.63
2023-01-22T06:27:59.742Z,5.22
2023-01-22T06:30:28.049Z,5.22
2023-01-22T06:32:56.194Z,4.70
2023-01-22T06:35:25.721Z,5.68
2023-01-22T06:37:54.380Z,5.72
2023-01-22T06:40:24.090Z,4.78
2023-01-22T06:42:52.099Z,4.90
2023-01-22T06:45:21.062Z,5.05
2023-01-22T06:47:53.361Z,4.13
2023-01-22T06:50:21.543Z,5.00
2023-01-22T06:52:49.441Z,4.35
2023-01-22T06:55:18.746Z,4.32
2023-01-22T06:57:47.303Z,4.60
2023-01-22T07:00:16.161Z,5.53
2023-01-22T07:02:44.411Z,4.50
2023-01-22T07:05:12.794Z,4.20
2023-01-22T07:07:40.632Z,6.15
2023-01-22T07:10:10.161Z,4.53
2023-01-22T07:12:38.072Z,4.40
2023-01-22T07:15:08.139Z,4.35
2023-01-22T07:17:37.699Z,3.70
2023-01-22T07:20:06.158Z,3.70
2023-01-22T07:22:34.071Z,3.85
2023-01-22T07:25:02.374Z,4.60
2023-01-22T07:27:32.690Z,4.30
2023-01-22T07:30:01.160Z,4.47
2023-01-22T07:32:29.162Z,3.63
2023-01-22T07:34:57.333Z,4.50
2023-01-22T07:37:25.232Z,4.50
2023-01-22T07:39:54.077Z,4.80
2023-01-22T07:42:21.979Z,4.38
2023-01-22T07:44:50.322Z,4.57
2023-01-22T07:47:18.315Z,4.25
2023-01-22T07:49:46.599Z,7.07
2023-01-22T07:52:14.579Z,4.35
2023-01-22T07:54:42.906Z,5.50
2023-01-22T07:57:15.762Z,3.97
2023-01-22T07:59:44.028Z,5.07
2023-01-22T08:02:16.453Z,4.20
2023-01-22T08:04:44.640Z,4.00
2023-01-22T08:07:17.045Z,5.05
2023-01-22T08:12:14.078Z,3.88
2023-01-22T08:14:42.262Z,4.32
2023-01-22T08:17:10.122Z,4.05
2023-01-22T08:19:38.332Z,3.92
2023-01-22T08:22:06.443Z,3.08
2023-01-22T08:24:34.871Z,2.97
2023-01-22T08:27:03.311Z,3.55
2023-01-22T08:29:31.574Z,2.78
2023-01-22T08:31:59.491Z,2.50
2023-01-22T08:34:27.994Z,2.65
2023-01-22T08:36:56.093Z,2.10
2023-01-22T08:39:24.463Z,2.85
2023-01-22T08:41:57.511Z,2.85
2023-01-22T08:44:27.160Z,2.05
2023-01-22T08:46:55.023Z,1.40
2023-01-22T08:49:23.322Z,1.90
2023-01-22T08:51:51.200Z,2.08
2023-01-22T08:54:21.713Z,1.70
2023-01-22T08:56:49.781Z,1.95
2023-01-22T08:59:17.919Z,1.67
2023-01-22T09:01:45.837Z,1.45
2023-01-22T09:04:13.994Z,1.30
2023-01-22T09:06:43.059Z,1.85
2023-01-22T09:09:12.602Z,2.20
2023-01-22T09:11:41.055Z,1.85
2023-01-22T09:14:10.199Z,1.40
2023-01-22T09:16:38.314Z,1.90
2023-01-22T09:19:07.919Z,1.45
2023-01-22T09:21:37.566Z,1.70
2023-01-22T09:24:07.034Z,1.38
2023-01-22T09:26:37.420Z,1.83
2023-01-22T09:29:07.318Z,1.70
2023-01-22T09:31:37.158Z,1.70
2023-01-22T09:34:06.560Z,1.30
2023-01-22T09:36:34.579Z,1.45
2023-01-22T09:39:02.769Z,1.10
2023-01-22T09:41:38.997Z,1.70
2023-01-22T09:44:20.291Z,1.70
2023-01-22T09:47:04.058Z,1.42
2023-01-22T09:52:06.639Z,1.48
2023-01-22T09:54:34.950Z,1.42
2023-01-22T09:57:06.368Z,1.70
2023-01-22T09:59:53.099Z,1.63
2023-01-22T10:02:35.448Z,1.90
2023-01-22T10:05:32.133Z,1.48
2023-01-22T10:08:21.889Z,2.35
2023-01-22T10:10:52.270Z,1.70
2023-01-22T10:13:27.730Z,1.88
2023-01-22T10:15:56.829Z,2.10
2023-01-22T10:18:37.808Z,1.60
2023-01-22T10:21:18.652Z,2.03
2023-01-22T10:23:47.299Z,1.63
2023-01-22T10:26:25.400Z,1.67
2023-01-22T10:28:58.582Z,2.03
2023-01-22T10:31:35.840Z,1.42
2023-01-22T10:34:31.561Z,1.88
2023-01-22T10:37:15.348Z,1.67
2023-01-22T10:39:46.397Z,1.98
2023-01-22T10:42:23.314Z,1.80
2023-01-22T10:44:57.130Z,1.83
2023-01-22T10:47:27.802Z,1.90
2023-01-22T10:50:12.801Z,2.05
2023-01-22T10:52:48.165Z,1.65
2023-01-22T10:55:28.500Z,2.40
2023-01-22T10:58:05.040Z,2.10
2023-01-22T11:00:46.660Z,2.13
2023-01-22T11:03:39.759Z,2.40
2023-01-22T11:06:15.598Z,2.67
2023-01-22T11:08:57.421Z,2.10
2023-01-22T11:11:32.183Z,1.98
2023-01-22T11:14:00.381Z,2.00
2023-01-22T11:16:32.470Z,2.08
2023-01-22T11:19:16.788Z,2.08
2023-01-22T11:21:50.700Z,1.98
2023-01-22T11:27:20.811Z,2.50
2023-01-22T11:29:52.059Z,1.30
2023-01-22T11:32:22.981Z,1.67
2023-01-22T11:35:15.246Z,1.67
2023-01-22T11:38:17.815Z,1.58
2023-01-22T11:41:17.046Z,2.35
2023-01-22T11:43:47.884Z,1.63
2023-01-22T11:46:41.147Z,2.00
2023-01-22T11:49:19.590Z,2.05
2023-01-22T11:52:19.248Z,1.90
2023-01-22T11:55:22.957Z,1.60
2023-01-22T11:58:01.727Z,2.55
2023-01-22T12:00:53.968Z,1.90
2023-01-22T12:04:00.872Z,2.17
2023-01-22T12:06:28.838Z,1.58
2023-01-22T12:09:04.628Z,1.60
2023-01-22T12:11:41.253Z,1.58
2023-01-22T12:14:27.786Z,1.50
2023-01-22T12:17:36.319Z,1.63
2023-01-22T12:20:32.211Z,1.90
2023-01-22T12:23:08.931Z,1.95
2023-01-22T12:25:44.389Z,1.70
2023-01-22T12:28:15.590Z,1.20
2023-01-22T12:31:14.464Z,1.77
2023-01-22T12:33:44.267Z,1.75
2023-01-22T12:36:19.948Z,1.70
2023-01-22T12:39:15.392Z,1.52
2023-01-22T12:42:02.193Z,1.73
2023-01-22T12:45:14.077Z,1.45
2023-01-22T12:47:45.510Z,1.50
2023-01-22T12:50:22.146Z,1.80
2023-01-22T12:53:02.879Z,1.50
2023-01-22T12:55:44.075Z,1.25
2023-01-22T12:58:23.563Z,1.45
2023-01-22T13:01:03.421Z,1.80
2023-01-22T13:03:33.474Z,1.35
2023-01-22T13:06:04.359Z,1.77
2023-01-22T13:08:42.565Z,1.58
2023-01-22T13:11:14.172Z,1.50
2023-01-22T13:13:53.979Z,1.23
2023-01-22T13:16:35.532Z,1.48
2023-01-22T13:19:28.564Z,1.58
2023-01-22T13:22:01.028Z,1.45
2023-01-22T13:24:29.462Z,1.40
2023-01-22T13:27:03.246Z,1.63
2023-01-22T13:29:37.935Z,1.25
2023-01-22T13:32:16.864Z,1.55
2023-01-22T13:34:45.306Z,1.40
2023-01-22T13:37:27.264Z,2.33
2023-01-22T13:39:55.622Z,1.67
2023-01-22T13:42:24.978Z,1.70
2023-01-22T13:44:53.387Z,1.73
2023-01-22T13:47:29.542Z,2.17
2023-01-22T13:49:59.550Z,1.75
2023-01-22T13:52:33.589Z,1.75
2023-01-22T13:55:07.065Z,2.05
2023-01-22T13:57:35.134Z,1.77
2023-01-22T14:00:04.734Z,1.70
2023-01-22T14:02:35.869Z,1.85
2023-01-22T14:05:04.563Z,1.95
2023-01-22T14:07:35.190Z,1.77
2023-01-22T14:10:33.961Z,2.85
2023-01-22T14:13:05.066Z,1.70
2023-01-22T14:15:34.719Z,2.10
2023-01-22T14:18:21.465Z,1.60
2023-01-22T14:20:49.743Z,1.55
2023-01-22T14:23:17.639Z,1.23
2023-01-22T14:25:51.338Z,1.77
2023-01-22T14:28:20.127Z,1.60
2023-01-22T14:30:49.877Z,1.88
2023-01-22T14:33:32.516Z,1.70
2023-01-22T14:36:01.402Z,1.75
2023-01-22T14:38:29.511Z,1.55
2023-01-22T14:40:57.912Z,1.63
2023-01-22T14:43:25.926Z,1.52
2023-01-22T14:45:55.235Z,1.67
2023-01-22T14:48:23.542Z,1.75
2023-01-22T14:50:52.022Z,1.33
2023-01-22T14:53:19.964Z,1.75
2023-01-22T14:55:48.292Z,1.98
2023-01-22T14:58:16.612Z,1.90
2023-01-22T15:00:45.775Z,1.58
2023-01-22T15:03:13.875Z,1.73
2023-01-22T15:05:42.152Z,2.78
2023-01-22T15:08:10.167Z,2.22
2023-01-22T15:10:38.532Z,2.30
2023-01-22T15:13:06.514Z,2.40
2023-01-22T15:15:34.862Z,2.83
2023-01-22T15:18:02.784Z,2.10
2023-01-22T15:20:31.134Z,2.72
2023-01-22T15:22:59.183Z,2.33
2023-01-22T15:25:27.571Z,2.10
2023-01-22T15:27:55.573Z,2.80
2023-01-22T15:30:23.947Z,2.28
2023-01-22T15:32:51.901Z,2.33
2023-01-22T15:35:20.213Z,2.28
2023-01-22T15:37:48.721Z,2.47
2023-01-22T15:40:17.848Z,1.73
2023-01-22T15:42:46.093Z,2.28
2023-01-22T15:45:15.538Z,3.25
2023-01-22T15:47:43.618Z,10.07
2023-01-22T15:50:12.154Z,9.88
2023-01-22T15:52:40.101Z,4.88
2023-01-22T15:55:08.848Z,2.50
2023-01-22T15:57:36.888Z,9.13
2023-01-22T16:00:07.863Z,6.78
2023-01-22T16:02:40.408Z,9.65
2023-01-22T16:05:09.027Z,3.97
2023-01-22T16:07:36.953Z,6.20
2023-01-22T16:10:06.183Z,2.80
2023-01-22T16:12:35.102Z,2.58
2023-01-22T16:15:03.562Z,1.83
2023-01-22T16:17:31.513Z,2.28
2023-01-22T16:19:59.821Z,2.13
2023-01-22T16:22:28.023Z,2.10
2023-01-22T16:24:56.344Z,2.25
2023-01-22T16:27:24.348Z,2.25
2023-01-22T16:29:52.574Z,2.40
2023-01-22T16:32:20.691Z,2.20
2023-01-22T16:34:50.190Z,2.20
2023-01-22T16:37:18.128Z,2.00
2023-01-22T16:39:46.311Z,1.65
2023-01-22T16:42:14.285Z,1.80
2023-01-22T16:44:42.726Z,1.80
2023-01-22T16:47:10.823Z,2.13
2023-01-22T16:49:39.091Z,2.28
2023-01-22T16:52:21.884Z,2.45
2023-01-22T16:54:51.532Z,2.40
2023-01-22T16:57:20.377Z,2.40
2023-01-22T16:59:49.721Z,2.25
2023-01-22T17:02:19.482Z,2.75
2023-01-22T17:04:48.218Z,2.65
2023-01-22T17:07:31.870Z,2.72
2023-01-22T17:10:01.589Z,2.67
2023-01-22T17:12:29.602Z,4.80
2023-01-22T17:14:58.414Z,4.15
2023-01-22T17:17:26.617Z,3.30
2023-01-22T17:19:55.416Z,2.80
2023-01-22T17:22:24.419Z,2.30
2023-01-22T17:24:52.879Z,2.50
2023-01-22T17:27:21.732Z,1.98
2023-01-22T17:29:50.047Z,2.30
2023-01-22T17:32:17.991Z,2.25
2023-01-22T17:34:47.589Z,2.00
2023-01-22T17:37:15.583Z,2.13
2023-01-22T17:39:46.308Z,2.17
2023-01-22T17:42:14.358Z,2.78
2023-01-22T17:44:42.681Z,2.40
2023-01-22T17:47:11.325Z,2.80
2023-01-22T17:49:39.771Z,2.67
2023-01-22T17:52:09.503Z,3.00
2023-01-22T17:54:38.629Z,2.47
2023-01-22T17:57:07.163Z,2.60
2023-01-22T17:59:35.504Z,3.17
2023-01-22T18:02:03.828Z,3.13
2023-01-22T18:04:34.774Z,3.20
2023-01-22T18:07:04.028Z,2.92
2023-01-22T18:09:32.404Z,3.33
2023-01-22T18:12:00.637Z,2.92
2023-01-22T18:14:34.208Z,3.47
2023-01-22T18:17:02.760Z,3.42
2023-01-22T18:19:30.759Z,4.22
2023-01-22T18:21:59.091Z,3.75
2023-01-22T18:24:27.547Z,4.25
2023-01-22T18:26:58.868Z,4.32
2023-01-22T18:29:27.389Z,5.43
2023-01-22T18:31:55.758Z,5.47
2023-01-22T18:34:24.152Z,5.78
2023-01-22T18:36:52.542Z,6.45
2023-01-22T18:39:21.445Z,6.28
2023-01-22T18:41:49.809Z,6.10
2023-01-22T18:44:19.773Z,4.95
2023-01-22T18:46:52.819Z,5.15
2023-01-22T18:49:20.748Z,5.80
2023-01-22T18:51:49.627Z,5.75
2023-01-22T18:54:17.733Z,6.13
2023-01-22T18:56:47.440Z,6.85
2023-01-22T18:59:18.181Z,6.53
2023-01-22T19:01:51.976Z,6.78
2023-01-22T19:04:22.178Z,10.52
2023-01-22T19:06:52.999Z,7.97
2023-01-22T19:09:21.800Z,9.75
2023-01-22T19:11:52.641Z,11.30
2023-01-22T19:14:22.536Z,10.77
2023-01-22T19:16:53.576Z,8.15
2023-01-22T19:19:25.133Z,7.63
2023-01-22T19:21:55.639Z,6.85
2023-01-22T19:24:28.464Z,6.13
2023-01-22T19:26:57.736Z,5.50
2023-01-22T19:29:26.749Z,6.78
2023-01-22T19:31:55.962Z,5.18
2023-01-22T19:34:24.955Z,6.35
2023-01-22T19:37:01.665Z,5.88
2023-01-22T19:39:31.349Z,5.60
2023-01-22T19:42:05.377Z,6.15
2023-01-22T19:44:36.269Z,6.68
2023-01-22T19:47:04.368Z,7.55
2023-01-22T19:49:32.951Z,6.50
2023-01-22T19:52:00.958Z,6.38
2023-01-22T19:54:29.290Z,6.60
2023-01-22T19:56:57.229Z,6.00
2023-01-22T19:59:25.608Z,7.60
2023-01-22T20:01:54.572Z,5.57
2023-01-22T20:04:25.801Z,6.50
2023-01-22T20:06:59.979Z,6.22
2023-01-22T20:09:30.050Z,5.78
2023-01-22T20:11:58.417Z,6.72
2023-01-22T20:14:30.553Z,6.72
2023-01-22T20:17:00.410Z,6.70
2023-01-22T20:19:30.674Z,7.75
2023-01-22T20:22:00.842Z,7.15
2023-01-22T20:24:29.188Z,7.78
2023-01-22T20:26:58.749Z,8.43
2023-01-22T20:29:27.618Z,6.30
2023-01-22T20:31:56.929Z,8.15
2023-01-22T20:34:26.119Z,6.60
2023-01-22T20:36:54.092Z,4.97
2023-01-22T20:39:22.452Z,5.03
2023-01-22T20:41:50.491Z,4.68
2023-01-22T20:44:18.883Z,5.57
2023-01-22T20:46:48.989Z,4.43
2023-01-22T20:49:17.330Z,4.07
2023-01-22T20:51:45.381Z,5.20
2023-01-22T20:54:14.133Z,5.60
2023-01-22T20:56:42.163Z,5.45
2023-01-22T20:59:14.131Z,6.55
2023-01-22T21:01:42.273Z,5.32
2023-01-22T21:04:12.948Z,5.50
2023-01-22T21:06:41.635Z,6.43
2023-01-22T21:09:10.884Z,5.93
2023-01-22T21:11:41.207Z,5.88
2023-01-22T21:14:16.088Z,5.72
2023-01-22T21:16:44.847Z,5.63
2023-01-22T21:19:18.069Z,5.68
2023-01-22T21:21:46.718Z,5.60
2023-01-22T21:24:15.573Z,5.40
2023-01-22T21:26:43.758Z,5.15
2023-01-22T21:29:18.296Z,5.35
2023-01-22T21:31:50.342Z,5.13
2023-01-22T21:34:21.004Z,6.13
2023-01-22T21:36:50.437Z,5.88
2023-01-22T21:39:20.874Z,5.80
2023-01-22T21:41:49.277Z,5.80
2023-01-22T21:44:38.466Z,7.20
2023-01-22T21:47:06.468Z,5.68
2023-01-22T21:49:36.394Z,6.22
2023-01-22T21:52:08.079Z,6.38
2023-01-22T21:54:39.050Z,6.22
2023-01-22T21:57:09.274Z,6.57
2023-01-22T21:59:37.514Z,5.93
2023-01-22T22:02:06.899Z,7.35
2023-01-22T22:04:35.298Z,7.32
2023-01-22T22:07:03.295Z,7.18
2023-01-22T22:09:31.613Z,7.68
2023-01-22T22:12:00.968Z,7.85
2023-01-22T22:14:30.361Z,8.55
2023-01-22T22:16:59.271Z,8.05
2023-01-22T22:19:29.080Z,9.00
2023-01-22T22:21:57.188Z,8.32
2023-01-22T22:24:25.642Z,10.40
2023-01-22T22:26:53.509Z,9.30
2023-01-22T22:29:21.713Z,10.15
2023-01-22T22:31:49.656Z,9.00
2023-01-22T22:34:18.925Z,11.43
2023-01-22T22:36:46.828Z,9.57
2023-01-22T22:39:15.117Z,10.43
2023-01-22T22:41:43.033Z,9.02
2023-01-22T22:44:11.810Z,9.02
2023-01-22T22:46:39.912Z,8.45
2023-01-22T22:49:12.246Z,8.30
2023-01-22T22:51:42.975Z,8.73
2023-01-22T22:54:20.363Z,8.73
2023-01-22T22:56:49.932Z,8.38
2023-01-22T22:59:21.287Z,7.95
2023-01-22T23:01:50.215Z,7.65
2023-01-22T23:04:18.554Z,8.65
2023-01-22T23:06:47.385Z,9.02
2023-01-22T23:09:19.853Z,7.95
2023-01-22T23:11:52.104Z,7.50
2023-01-22T23:14:20.458Z,8.10
2023-01-22T23:16:49.146Z,6.70
2023-01-22T23:19:24.722Z,6.60
2023-01-22T23:21:56.696Z,8.02
2023-01-22T23:24:25.644Z,7.38
2023-01-22T23:26:53.736Z,6.93
2023-01-22T23:29:24.663Z,7.75
2023-01-22T23:31:53.066Z,7.70
2023-01-22T23:34:22.091Z,8.57
2023-01-22T23:36:51.069Z,8.10
2023-01-22T23:39:21.002Z,8.10
2023-01-22T23:41:49.209Z,8.30
2023-01-22T23:44:17.892Z,8.85
2023-01-22T23:46:46.073Z,9.07
2023-01-22T23:49:14.499Z,8.10
2023-01-22T23:51:44.672Z,7.82
2023-01-22T23:54:13.205Z,8.10
2023-01-22T23:56:41.109Z,8.02
2023-01-22T23:59:11.451Z,6.95
